Pagina principală
METAR-TAF:

METAR-TAF

Aeroporturi :

Tahiti, Polinezia Franceză

Latitudine: 17-33S, longitudine: 149-37W, elevație: 2 m

Observații meteo curente

Raportul a fost făcut în urmă cu 51 de minute, la 16:30 UTC
Vânt 5 kt de la Est/Nord-est, variabil între Nord/Nord-est și Est
Temperatură 23°C
Umiditate 83%
Presiune 1013 hPa
Vizibilitate de 10 km sau mai mult
Nori puțini la o înălțime de 2000 picior

METAR: NTAA 211630Z 07005KT 030V100 9999 FEW020 23/20 Q1013 NOSIG

Ora: 07:21 (17:21 UTC)

Prognoză

Raportul a fost făcut în urmă cu 6 ore și 21 de minute, la 11:00 UTC
Prognoză valabilă de la 21 ora 12 UTC la 22 ora 18 UTC
Vânt 5 kt din direcții variabile
Vizibilitate de 10 km sau mai mult
Nori puțini la o înălțime de 2500 picior

TAF: NTAA 211100Z 2112/2218 VRB05KT 9999 FEW025

Observații și prognoze meteo pentru peste 4.000 de aeroporturi (rapoarte METAR și TAF).

Stațiile disponibile sunt reprezentate pe hartă prin puncte galbene și roșii.

Țineți indicatorul mouse-ului pe punctul dorit pentru a vedea denumirea stației.

Apoi, faceți clic pentru a vedea observațiile și prognozele meteorologice.

Pentru a schimba harta: Pentru mărire, faceți clic pe butoanele verzi cu cruce neagră; pentru micșorare, pe butonul verde cu o liniuță; pentru hărți învecinate, pe săgețile verzi.


METAR-TAF: